createdAt,value
2019-05-22T00:00:46.908Z,100.00
2019-05-22T00:03:19.932Z,100.00
2019-05-22T00:05:50.358Z,100.00
2019-05-22T00:08:20.841Z,100.00
2019-05-22T00:10:50.800Z,100.00
2019-05-22T00:13:23.275Z,100.00
2019-05-22T00:15:54.851Z,100.00
2019-05-22T00:18:26.052Z,100.00
2019-05-22T00:20:57.821Z,100.00
2019-05-22T00:23:28.883Z,100.00
2019-05-22T00:25:58.677Z,100.00
2019-05-22T00:28:28.385Z,99.87
2019-05-22T00:30:59.301Z,100.00
2019-05-22T00:33:30.159Z,100.00
2019-05-22T00:36:00.412Z,100.00
2019-05-22T00:38:31.893Z,100.00
2019-05-22T00:41:03.702Z,100.00
2019-05-22T00:43:39.689Z,100.00
2019-05-22T00:46:12.473Z,100.00
2019-05-22T00:48:44.481Z,100.00
2019-05-22T00:51:32.532Z,100.00
2019-05-22T00:54:11.432Z,100.00
2019-05-22T00:56:51.752Z,100.00
2019-05-22T00:59:27.257Z,100.00
2019-05-22T01:02:02.610Z,100.00
2019-05-22T01:04:38.429Z,100.00
2019-05-22T01:07:12.709Z,100.00
2019-05-22T01:09:44.665Z,100.00
2019-05-22T01:12:22.136Z,100.00
2019-05-22T01:14:53.517Z,100.00
2019-05-22T01:17:24.531Z,100.00
2019-05-22T01:19:54.744Z,100.00
2019-05-22T01:22:26.664Z,100.00
2019-05-22T01:24:57.248Z,100.00
2019-05-22T01:27:29.652Z,100.00
2019-05-22T01:30:00.421Z,100.00
2019-05-22T01:32:45.889Z,100.00
2019-05-22T01:35:16.807Z,100.00
2019-05-22T01:37:47.140Z,100.00
2019-05-22T01:40:27.169Z,100.00
2019-05-22T01:42:59.273Z,100.00
2019-05-22T01:45:29.853Z,100.00
2019-05-22T01:48:02.835Z,100.00
2019-05-22T01:50:51.516Z,100.00
2019-05-22T01:53:24.331Z,100.00
2019-05-22T01:56:00.045Z,100.00
2019-05-22T01:58:31.787Z,100.00
2019-05-22T02:01:03.579Z,100.00
2019-05-22T02:03:37.072Z,99.41
2019-05-22T02:06:07.461Z,99.75
2019-05-22T02:08:41.892Z,99.40
2019-05-22T02:11:13.137Z,99.40
2019-05-22T02:13:46.450Z,99.74
2019-05-22T02:16:17.197Z,99.60
2019-05-22T02:18:49.669Z,99.60
2019-05-22T02:21:20.298Z,99.48
2019-05-22T02:23:50.058Z,99.48
2019-05-22T02:26:20.113Z,99.73
2019-05-22T02:28:51.242Z,99.58
2019-05-22T02:31:23.607Z,99.65
2019-05-22T02:34:03.894Z,99.65
2019-05-22T02:36:35.146Z,99.52
2019-05-22T02:39:10.889Z,99.35
2019-05-22T02:41:44.896Z,99.41
2019-05-22T02:44:15.014Z,99.23
2019-05-22T02:46:45.045Z,99.23
2019-05-22T02:49:14.875Z,99.29
2019-05-22T02:51:45.787Z,99.29
2019-05-22T02:54:30.069Z,99.00
2019-05-22T02:56:59.898Z,98.77
2019-05-22T02:59:31.607Z,98.94
2019-05-22T03:02:02.338Z,98.94
2019-05-22T03:04:54.966Z,98.57
2019-05-22T03:07:25.912Z,98.68
2019-05-22T03:09:55.713Z,98.75
2019-05-22T03:12:28.817Z,98.89
2019-05-22T03:14:58.462Z,98.61
2019-05-22T03:17:31.145Z,98.81
2019-05-22T03:20:04.511Z,98.81
2019-05-22T03:22:40.877Z,98.65
2019-05-22T03:25:16.331Z,98.41
2019-05-22T03:27:48.129Z,98.41
2019-05-22T03:30:21.604Z,98.40
2019-05-22T03:32:52.349Z,98.15
2019-05-22T03:35:22.716Z,97.85
2019-05-22T03:37:53.466Z,97.85
2019-05-22T03:40:23.221Z,97.52
2019-05-22T03:42:52.997Z,97.52
2019-05-22T03:45:23.746Z,97.78
2019-05-22T03:47:54.402Z,97.67
2019-05-22T03:50:26.726Z,98.08
2019-05-22T03:52:58.169Z,98.04
2019-05-22T03:55:28.187Z,97.84
2019-05-22T03:57:58.018Z,97.84
2019-05-22T04:00:29.376Z,98.06
2019-05-22T04:02:59.192Z,98.21
2019-05-22T04:05:29.570Z,98.48
2019-05-22T04:08:00.316Z,98.53
2019-05-22T04:10:35.106Z,98.85
2019-05-22T04:13:06.620Z,98.85
2019-05-22T04:15:36.670Z,98.73
2019-05-22T04:18:16.604Z,99.07
2019-05-22T04:20:46.945Z,98.95
2019-05-22T04:23:16.917Z,98.95
2019-05-22T04:25:47.146Z,99.03
2019-05-22T04:28:17.132Z,99.13
2019-05-22T04:30:48.263Z,99.13
2019-05-22T04:33:18.296Z,98.88
2019-05-22T04:35:49.096Z,98.64
2019-05-22T04:38:18.924Z,98.64
2019-05-22T04:40:49.987Z,98.21
2019-05-22T04:43:21.560Z,97.15
2019-05-22T04:45:51.998Z,96.84
2019-05-22T04:48:22.080Z,97.42
2019-05-22T04:50:53.436Z,97.42
2019-05-22T04:53:23.327Z,97.05
2019-05-22T04:55:53.413Z,95.82
2019-05-22T04:58:26.801Z,95.41
2019-05-22T05:00:57.140Z,95.93
2019-05-22T05:03:27.268Z,96.09
2019-05-22T05:05:57.654Z,96.54
2019-05-22T05:08:30.233Z,96.54
2019-05-22T05:11:03.180Z,95.54
2019-05-22T05:13:33.050Z,96.20
2019-05-22T05:16:03.178Z,96.20
2019-05-22T05:18:33.309Z,96.05
2019-05-22T05:21:03.384Z,96.05
2019-05-22T05:23:33.635Z,95.93
2019-05-22T05:26:03.390Z,95.81
2019-05-22T05:28:33.737Z,95.42
2019-05-22T05:31:06.185Z,95.42
2019-05-22T05:33:54.170Z,95.42
2019-05-22T05:36:23.808Z,95.09
2019-05-22T05:38:53.922Z,94.95
2019-05-22T05:41:23.533Z,94.34
2019-05-22T05:43:53.580Z,94.79
2019-05-22T05:46:23.269Z,94.79
2019-05-22T05:48:54.751Z,94.94
2019-05-22T05:51:25.956Z,95.20
2019-05-22T05:53:59.897Z,95.20
2019-05-22T05:56:30.489Z,94.74
2019-05-22T05:59:00.787Z,94.50
2019-05-22T06:01:33.487Z,94.97
2019-05-22T06:04:04.199Z,94.71
2019-05-22T06:07:17.100Z,94.80
2019-05-22T06:09:48.533Z,94.36
2019-05-22T06:12:19.308Z,94.66
2019-05-22T06:14:49.482Z,94.52
2019-05-22T06:17:57.587Z,94.79
2019-05-22T06:20:27.746Z,94.58
2019-05-22T06:23:42.568Z,94.58
2019-05-22T06:26:15.585Z,94.69
2019-05-22T06:28:47.168Z,95.33
2019-05-22T06:31:24.740Z,95.01
2019-05-22T06:33:54.945Z,95.01
2019-05-22T06:36:27.126Z,94.53
2019-05-22T06:39:03.663Z,94.53
2019-05-22T06:41:35.652Z,94.26
2019-05-22T06:44:37.149Z,93.99
2019-05-22T06:47:13.685Z,93.99
2019-05-22T06:49:46.798Z,94.51
2019-05-22T06:52:17.239Z,94.14
2019-05-22T06:54:47.043Z,94.10
2019-05-22T06:57:23.165Z,94.10
2019-05-22T07:00:11.267Z,93.65
2019-05-22T07:02:25.033Z,93.61
2019-05-22T07:04:54.601Z,94.11
2019-05-22T07:07:29.851Z,94.21
2019-05-22T07:10:00.453Z,94.21
2019-05-22T07:12:30.953Z,94.61
2019-05-22T07:15:50.510Z,94.58
2019-05-22T07:18:29.989Z,94.58
2019-05-22T07:21:00.161Z,93.66
2019-05-22T07:23:30.770Z,94.06
2019-05-22T07:26:01.124Z,93.24
2019-05-22T07:28:31.497Z,93.24
2019-05-22T07:31:01.583Z,93.22
2019-05-22T07:33:31.752Z,91.91
2019-05-22T07:36:12.210Z,92.23
2019-05-22T07:38:33.676Z,90.67
2019-05-22T07:41:04.011Z,91.07
2019-05-22T07:43:34.111Z,91.07
2019-05-22T07:46:03.841Z,91.15
2019-05-22T07:48:33.690Z,91.74
2019-05-22T07:51:05.809Z,91.89
2019-05-22T07:53:35.836Z,91.89
2019-05-22T07:56:08.858Z,92.72
2019-05-22T07:58:39.258Z,92.72
2019-05-22T08:01:09.765Z,92.44
2019-05-22T08:03:39.643Z,91.56
2019-05-22T08:06:12.733Z,91.56
2019-05-22T08:08:43.212Z,91.91
2019-05-22T08:11:32.622Z,91.91
2019-05-22T08:14:04.584Z,91.76
2019-05-22T08:16:34.409Z,89.42
2019-05-22T08:19:04.145Z,87.44
2019-05-22T08:21:36.589Z,87.35
2019-05-22T08:24:07.303Z,89.07
2019-05-22T08:26:53.131Z,88.79
2019-05-22T08:31:38.160Z,87.90
2019-05-22T08:34:08.283Z,87.90
2019-05-22T08:36:38.841Z,87.96
2019-05-22T08:39:11.010Z,87.91
2019-05-22T08:41:42.718Z,84.53
2019-05-22T08:44:16.937Z,84.53
2019-05-22T08:46:46.101Z,85.17
2019-05-22T08:49:15.597Z,86.50
2019-05-22T08:51:45.673Z,82.48
2019-05-22T08:54:16.717Z,82.48
2019-05-22T08:56:49.759Z,84.08
2019-05-22T08:59:20.447Z,84.55
2019-05-22T09:01:50.844Z,84.03
2019-05-22T09:04:21.237Z,83.43
2019-05-22T09:06:50.787Z,84.54
2019-05-22T09:09:21.055Z,82.10
2019-05-22T09:11:50.622Z,81.34
2019-05-22T09:14:21.734Z,82.21
2019-05-22T09:16:52.154Z,82.59
2019-05-22T09:19:22.251Z,82.59
2019-05-22T09:21:52.421Z,81.92
2019-05-22T09:24:23.918Z,83.74
2019-05-22T09:26:53.419Z,81.36
2019-05-22T09:29:25.038Z,81.98
2019-05-22T09:31:56.443Z,81.17
2019-05-22T09:34:27.513Z,81.17
2019-05-22T09:36:57.182Z,81.67
2019-05-22T09:39:26.857Z,80.21
2019-05-22T09:41:56.997Z,80.39
2019-05-22T09:44:28.358Z,80.39
2019-05-22T09:46:58.003Z,79.78
2019-05-22T09:49:27.719Z,79.78
2019-05-22T09:51:59.144Z,76.59
2019-05-22T09:54:28.712Z,78.32
2019-05-22T09:57:00.601Z,78.32
2019-05-22T09:59:30.864Z,77.45
2019-05-22T10:02:01.741Z,77.08
2019-05-22T10:04:32.697Z,76.89
2019-05-22T10:07:02.714Z,75.01
2019-05-22T10:09:32.562Z,76.37
2019-05-22T10:12:03.145Z,76.37
2019-05-22T10:14:33.643Z,73.33
2019-05-22T10:17:07.863Z,73.33
2019-05-22T10:19:37.885Z,72.15
2019-05-22T10:22:08.753Z,70.94
2019-05-22T10:24:38.553Z,71.08
2019-05-22T10:27:09.300Z,71.08
2019-05-22T10:29:39.220Z,71.57
2019-05-22T10:32:10.162Z,70.21
2019-05-22T10:34:39.762Z,70.21
2019-05-22T10:37:16.686Z,70.03
2019-05-22T10:39:50.367Z,68.81
2019-05-22T10:42:20.095Z,67.57
2019-05-22T10:44:50.566Z,67.57
2019-05-22T10:47:20.334Z,68.46
2019-05-22T10:49:50.028Z,67.07
2019-05-22T10:52:19.835Z,68.01
2019-05-22T10:54:49.500Z,68.76
2019-05-22T10:57:19.825Z,68.76
2019-05-22T10:59:49.917Z,66.95
2019-05-22T11:02:19.788Z,66.95
2019-05-22T11:04:49.837Z,67.66
2019-05-22T11:07:22.054Z,67.66
2019-05-22T11:09:52.041Z,69.09
2019-05-22T11:12:21.888Z,67.28
2019-05-22T11:14:52.219Z,66.88
2019-05-22T11:17:22.095Z,66.88
2019-05-22T11:19:51.685Z,66.11
2019-05-22T11:22:21.382Z,65.74
2019-05-22T11:24:51.158Z,64.79
2019-05-22T11:27:20.884Z,64.46
2019-05-22T11:29:50.677Z,64.94
2019-05-22T11:32:21.095Z,64.94
2019-05-22T11:34:51.230Z,63.95
2019-05-22T11:37:21.576Z,63.34
2019-05-22T11:39:54.225Z,63.34
2019-05-22T11:42:24.450Z,66.21
2019-05-22T11:44:53.971Z,62.91
2019-05-22T11:47:23.659Z,62.65
2019-05-22T11:49:53.228Z,62.57
2019-05-22T11:52:23.032Z,63.38
2019-05-22T11:54:52.655Z,63.36
2019-05-22T11:57:22.665Z,63.36
2019-05-22T11:59:53.131Z,61.15
2019-05-22T12:02:24.341Z,61.62
2019-05-22T12:04:54.266Z,61.62
2019-05-22T12:07:24.587Z,61.51
2019-05-22T12:09:54.640Z,61.31
2019-05-22T12:12:24.833Z,61.31
2019-05-22T12:14:54.557Z,60.17
2019-05-22T12:17:38.078Z,60.68
2019-05-22T12:20:05.206Z,60.27
2019-05-22T12:22:37.682Z,60.27
2019-05-22T12:25:07.539Z,60.04
2019-05-22T12:27:39.514Z,58.50
2019-05-22T12:30:09.243Z,59.32
2019-05-22T12:32:40.404Z,59.43
2019-05-22T12:35:10.271Z,59.03
2019-05-22T12:37:41.772Z,59.03
2019-05-22T12:40:17.369Z,60.14
2019-05-22T12:42:47.332Z,56.75
2019-05-22T12:45:25.272Z,56.75
2019-05-22T12:50:31.270Z,57.11
2019-05-22T12:53:02.535Z,55.94
2019-05-22T12:55:32.674Z,54.90
2019-05-22T12:58:02.514Z,55.39
2019-05-22T13:00:33.795Z,55.59
2019-05-22T13:03:08.008Z,56.07
2019-05-22T13:05:45.604Z,55.42
2019-05-22T13:08:15.325Z,55.42
2019-05-22T13:10:46.445Z,55.27
2019-05-22T13:13:16.435Z,54.63
2019-05-22T13:15:46.426Z,54.93
2019-05-22T13:18:18.122Z,55.20
2019-05-22T13:20:48.390Z,55.61
2019-05-22T13:23:18.386Z,54.91
2019-05-22T13:25:50.265Z,54.40
2019-05-22T13:28:20.033Z,54.40
2019-05-22T13:30:53.051Z,56.46
2019-05-22T13:33:25.246Z,53.25
2019-05-22T13:35:57.782Z,52.51
2019-05-22T13:38:28.151Z,52.34
2019-05-22T13:40:58.508Z,53.19
2019-05-22T13:43:30.152Z,54.49
2019-05-22T13:46:00.120Z,54.49
2019-05-22T13:48:29.969Z,53.69
2019-05-22T13:51:00.277Z,53.69
2019-05-22T13:53:30.279Z,53.94
2019-05-22T13:56:00.437Z,53.94
2019-05-22T13:58:33.810Z,54.22
2019-05-22T23:00:48.748Z,78.45
2019-05-22T23:03:22.081Z,78.45
2019-05-22T23:05:52.825Z,77.61
2019-05-22T23:08:25.525Z,77.61
2019-05-22T23:10:58.212Z,78.28
2019-05-22T23:13:28.598Z,78.76
2019-05-22T23:15:59.188Z,79.24
2019-05-22T23:19:07.142Z,78.71
2019-05-22T23:21:36.285Z,78.72
2019-05-22T23:24:05.407Z,78.72
2019-05-22T23:26:35.608Z,79.79
2019-05-22T23:29:08.885Z,79.46
2019-05-22T23:31:40.559Z,79.68
2019-05-22T23:34:11.736Z,79.68
2019-05-22T23:36:41.615Z,79.23
2019-05-22T23:39:13.111Z,79.23
2019-05-22T23:41:43.324Z,79.26
2019-05-22T23:44:13.770Z,78.97
2019-05-22T23:46:44.043Z,78.97
2019-05-22T23:49:14.268Z,79.16
2019-05-22T23:51:44.706Z,78.90
2019-05-22T23:54:14.876Z,78.65
2019-05-22T23:56:44.999Z,78.47
2019-05-22T23:59:16.877Z,78.30
